createdAt,value
2023-02-07T00:00:23.669Z,62.29
2023-02-07T00:02:50.333Z,62.88
2023-02-07T00:05:17.849Z,62.28
2023-02-07T00:07:46.473Z,62.24
2023-02-07T00:10:14.068Z,62.05
2023-02-07T00:12:40.567Z,62.11
2023-02-07T00:15:07.274Z,59.52
2023-02-07T00:17:34.855Z,59.42
2023-02-07T00:20:01.953Z,59.02
2023-02-07T00:22:30.039Z,60.04
2023-02-07T00:24:56.641Z,59.40
2023-02-07T00:27:25.248Z,59.03
2023-02-07T00:29:52.914Z,60.23
2023-02-07T00:32:20.485Z,60.15
2023-02-07T00:34:48.084Z,61.30
2023-02-07T00:37:15.709Z,60.49
2023-02-07T00:39:42.526Z,61.08
2023-02-07T00:42:09.122Z,61.21
2023-02-07T00:44:36.718Z,60.35
2023-02-07T00:47:04.303Z,61.55
2023-02-07T00:49:31.902Z,60.30
2023-02-07T00:51:59.504Z,60.34
2023-02-07T00:54:28.080Z,60.56
2023-02-07T00:56:55.700Z,61.08
2023-02-07T00:59:23.310Z,61.09
2023-02-07T01:01:51.882Z,61.07
2023-02-07T01:04:18.617Z,61.42
2023-02-07T01:06:46.191Z,61.43
2023-02-07T01:09:12.780Z,61.53
2023-02-07T01:11:41.389Z,61.44
2023-02-07T01:14:09.001Z,61.35
2023-02-07T01:16:37.630Z,62.06
2023-02-07T01:19:05.220Z,62.62
2023-02-07T01:21:31.836Z,62.61
2023-02-07T01:23:58.486Z,62.06
2023-02-07T01:26:25.179Z,61.86
2023-02-07T01:28:53.858Z,62.20
2023-02-07T01:31:21.455Z,62.35
2023-02-07T01:33:48.902Z,62.78
2023-02-07T01:36:17.522Z,63.23
2023-02-07T01:38:45.106Z,62.73
2023-02-07T01:41:12.701Z,62.47
2023-02-07T01:43:41.278Z,63.07
2023-02-07T01:46:07.998Z,63.24
2023-02-07T01:48:35.559Z,63.02
2023-02-07T01:51:03.143Z,63.58
2023-02-07T01:53:30.753Z,63.63
2023-02-07T01:55:58.486Z,64.27
2023-02-07T01:58:25.992Z,63.50
2023-02-07T02:00:53.534Z,63.90
2023-02-07T02:03:21.167Z,64.57
2023-02-07T02:05:47.896Z,64.10
2023-02-07T02:08:14.393Z,63.43
2023-02-07T02:10:40.881Z,63.30
2023-02-07T02:13:07.690Z,64.22
2023-02-07T02:15:38.025Z,64.13
2023-02-07T02:18:07.293Z,64.74
2023-02-07T02:20:34.774Z,64.11
2023-02-07T02:23:01.298Z,64.35
2023-02-07T02:25:28.906Z,64.40
2023-02-07T02:27:57.790Z,64.68
2023-02-07T02:30:26.927Z,64.07
2023-02-07T02:32:53.704Z,64.08
2023-02-07T02:35:21.388Z,64.33
2023-02-07T02:37:48.063Z,64.55
2023-02-07T02:40:15.607Z,64.60
2023-02-07T02:42:44.209Z,65.00
2023-02-07T02:45:11.821Z,64.59
2023-02-07T02:47:40.473Z,64.52
2023-02-07T02:50:08.135Z,63.87
2023-02-07T02:52:49.824Z,63.85
2023-02-07T02:55:17.536Z,63.77
2023-02-07T02:57:45.136Z,63.14
2023-02-07T03:00:11.767Z,63.97
2023-02-07T03:02:38.639Z,63.80
2023-02-07T03:05:05.922Z,62.94
2023-02-07T03:07:34.504Z,63.63
2023-02-07T03:10:00.958Z,63.83
2023-02-07T03:12:27.749Z,64.34
2023-02-07T03:14:54.395Z,63.23
2023-02-07T03:17:22.997Z,63.13
2023-02-07T03:19:49.500Z,63.15
2023-02-07T03:22:16.153Z,62.46
2023-02-07T03:24:42.763Z,62.74
2023-02-07T03:27:10.416Z,63.41
2023-02-07T03:29:37.939Z,62.86
2023-02-07T03:32:04.801Z,63.01
2023-02-07T03:34:31.312Z,62.92
2023-02-07T03:36:57.836Z,62.65
2023-02-07T03:39:24.381Z,62.18
2023-02-07T03:41:51.134Z,62.73
2023-02-07T03:44:18.756Z,62.83
2023-02-07T03:46:46.439Z,62.88
2023-02-07T03:49:13.984Z,62.65
2023-02-07T03:51:41.726Z,62.46
2023-02-07T03:54:08.192Z,61.85
2023-02-07T03:56:34.689Z,63.04
2023-02-07T03:59:02.393Z,63.46
2023-02-07T04:01:29.972Z,62.86
2023-02-07T04:03:56.433Z,63.32
2023-02-07T04:06:22.919Z,63.63
2023-02-07T04:08:49.368Z,63.16
2023-02-07T04:11:15.835Z,64.51
2023-02-07T04:13:42.991Z,63.82
2023-02-07T04:16:11.645Z,64.69
2023-02-07T04:18:39.181Z,65.29
2023-02-07T04:21:06.822Z,64.90
2023-02-07T04:23:34.404Z,65.20
2023-02-07T04:26:01.987Z,64.32
2023-02-07T04:28:29.578Z,64.50
2023-02-07T04:30:57.231Z,64.02
2023-02-07T04:33:24.750Z,63.93
2023-02-07T04:35:52.337Z,63.65
2023-02-07T04:38:19.983Z,64.28
2023-02-07T04:40:47.614Z,64.05
2023-02-07T04:43:14.313Z,63.92
2023-02-07T04:45:41.282Z,63.79
2023-02-07T04:48:07.809Z,63.74
2023-02-07T04:50:34.259Z,63.69
2023-02-07T04:53:01.641Z,63.93
2023-02-07T04:55:29.266Z,63.48
2023-02-07T04:57:58.873Z,64.05
2023-02-07T05:00:26.503Z,64.11
2023-02-07T05:02:55.112Z,64.24
2023-02-07T05:05:22.662Z,64.06
2023-02-07T05:07:50.269Z,63.60
2023-02-07T05:10:17.874Z,63.60
2023-02-07T05:12:45.534Z,63.99
2023-02-07T05:15:14.289Z,64.12
2023-02-07T05:17:41.682Z,64.52
2023-02-07T05:20:08.585Z,64.42
2023-02-07T05:22:36.016Z,64.95
2023-02-07T05:25:05.068Z,64.89
2023-02-07T05:27:31.545Z,64.86
2023-02-07T05:29:58.066Z,64.79
2023-02-07T05:32:27.189Z,64.60
2023-02-07T05:34:53.847Z,64.74
2023-02-07T05:37:22.430Z,65.42
2023-02-07T05:39:50.067Z,65.48
2023-02-07T05:42:16.871Z,65.23
2023-02-07T05:44:43.727Z,65.58
2023-02-07T05:47:10.855Z,65.26
2023-02-07T05:49:37.578Z,65.13
2023-02-07T05:52:05.181Z,65.59
2023-02-07T05:54:31.745Z,65.42
2023-02-07T05:56:58.218Z,65.62
2023-02-07T05:59:24.679Z,66.03
2023-02-07T06:01:51.580Z,65.41
2023-02-07T06:04:19.129Z,66.33
2023-02-07T06:06:46.005Z,65.44
2023-02-07T06:09:13.357Z,65.96
2023-02-07T06:11:41.949Z,66.19
2023-02-07T06:14:09.557Z,66.50
2023-02-07T06:16:37.152Z,66.65
2023-02-07T06:19:04.769Z,66.66
2023-02-07T06:21:45.342Z,66.80
2023-02-07T06:24:13.066Z,67.03
2023-02-07T06:26:40.660Z,67.11
2023-02-07T06:29:07.284Z,66.97
2023-02-07T06:31:34.928Z,67.51
2023-02-07T06:34:02.512Z,67.22
2023-02-07T06:36:30.078Z,67.45
2023-02-07T06:38:56.669Z,67.06
2023-02-07T06:41:23.266Z,67.40
2023-02-07T06:43:49.901Z,66.75
2023-02-07T06:46:17.484Z,67.17
2023-02-07T06:48:44.077Z,66.97
2023-02-07T06:51:10.535Z,66.41
2023-02-07T06:53:36.984Z,66.54
2023-02-07T06:56:03.890Z,67.43
2023-02-07T06:58:30.757Z,66.40
2023-02-07T07:00:58.063Z,67.12
2023-02-07T07:03:25.139Z,67.26
2023-02-07T07:05:51.785Z,66.30
2023-02-07T07:08:18.635Z,66.39
2023-02-07T07:10:45.103Z,66.58
2023-02-07T07:13:12.546Z,67.13
2023-02-07T07:15:40.357Z,66.56
2023-02-07T07:18:07.736Z,67.23
2023-02-07T07:20:34.310Z,67.23
2023-02-07T07:23:00.899Z,66.38
2023-02-07T07:25:27.486Z,66.60
2023-02-07T07:27:54.109Z,66.13
2023-02-07T07:30:20.700Z,66.49
2023-02-07T07:32:47.331Z,66.51
2023-02-07T07:35:13.750Z,66.01
2023-02-07T07:37:40.539Z,66.76
2023-02-07T07:40:09.119Z,66.00
2023-02-07T07:42:35.738Z,65.98
2023-02-07T07:45:04.334Z,66.47
2023-02-07T07:47:31.251Z,66.50
2023-02-07T07:49:57.710Z,66.32
2023-02-07T07:52:25.129Z,66.18
2023-02-07T07:54:52.726Z,66.43
2023-02-07T07:57:21.317Z,66.48
2023-02-07T07:59:50.464Z,66.87
2023-02-07T08:02:17.690Z,66.59
2023-02-07T08:04:46.185Z,65.96
2023-02-07T08:07:12.657Z,66.42
2023-02-07T08:09:40.348Z,66.20
2023-02-07T08:12:06.776Z,66.97
2023-02-07T08:14:33.214Z,66.26
2023-02-07T08:16:59.648Z,66.78
2023-02-07T08:19:26.731Z,66.43
2023-02-07T08:21:54.364Z,66.97
2023-02-07T08:24:20.781Z,66.89
2023-02-07T08:26:47.245Z,66.21
2023-02-07T08:29:13.741Z,65.91
2023-02-07T08:31:40.722Z,67.00
2023-02-07T08:34:08.315Z,67.68
2023-02-07T08:36:34.929Z,67.62
2023-02-07T08:39:01.346Z,67.27
2023-02-07T08:41:28.091Z,67.07
2023-02-07T08:43:54.716Z,66.54
2023-02-07T08:46:21.368Z,66.29
2023-02-07T08:48:48.919Z,66.92
2023-02-07T08:51:16.518Z,67.16
2023-02-07T08:53:44.310Z,66.17
2023-02-07T08:56:11.739Z,66.23
2023-02-07T08:58:38.188Z,66.46
2023-02-07T09:01:04.630Z,66.03
2023-02-07T09:03:31.561Z,65.76
2023-02-07T09:05:58.504Z,66.08
2023-02-07T09:08:24.927Z,64.49
2023-02-07T09:10:52.393Z,64.04
2023-02-07T09:13:20.044Z,63.62
2023-02-07T09:15:48.856Z,62.47
2023-02-07T09:18:16.172Z,62.66
2023-02-07T09:20:42.746Z,62.73
2023-02-07T09:23:09.343Z,62.30
2023-02-07T09:25:35.945Z,62.53
2023-02-07T09:28:02.581Z,61.96
2023-02-07T09:30:29.517Z,62.38
2023-02-07T09:32:56.761Z,62.05
2023-02-07T09:35:23.358Z,62.68
2023-02-07T09:37:50.289Z,62.38
2023-02-07T09:40:16.723Z,62.20
2023-02-07T09:42:43.103Z,61.24
2023-02-07T09:45:09.652Z,61.96
2023-02-07T09:47:36.111Z,61.07
2023-02-07T09:50:02.518Z,61.11
2023-02-07T09:52:28.923Z,61.96
2023-02-07T09:54:55.348Z,61.95
2023-02-07T09:57:22.703Z,61.44
2023-02-07T09:59:49.394Z,60.75
2023-02-07T10:02:15.786Z,60.68
2023-02-07T10:04:42.212Z,61.21
2023-02-07T10:07:08.615Z,61.11
2023-02-07T10:09:36.691Z,61.14
2023-02-07T10:12:03.122Z,60.96
2023-02-07T10:14:29.562Z,60.99
2023-02-07T10:16:56.031Z,60.71
2023-02-07T10:19:22.459Z,60.71
2023-02-07T10:21:48.873Z,60.87
2023-02-07T10:24:15.290Z,60.53
2023-02-07T10:26:41.722Z,60.67
2023-02-07T10:29:08.142Z,61.64
2023-02-07T10:31:35.188Z,61.42
2023-02-07T10:34:02.741Z,61.16
2023-02-07T10:36:29.182Z,61.06
2023-02-07T10:39:07.797Z,60.89
2023-02-07T10:41:35.169Z,60.96
2023-02-07T10:44:01.600Z,60.98
2023-02-07T10:46:28.020Z,60.81
2023-02-07T10:48:54.423Z,60.72
2023-02-07T10:51:22.043Z,60.12
2023-02-07T10:53:55.550Z,60.68
2023-02-07T10:56:23.403Z,60.19
2023-02-07T10:58:49.857Z,60.09
2023-02-07T11:01:16.330Z,60.40
2023-02-07T11:03:43.036Z,60.72
2023-02-07T11:06:11.651Z,60.75
2023-02-07T11:08:39.242Z,60.31
2023-02-07T11:11:07.936Z,60.47
2023-02-07T11:13:37.568Z,59.91
2023-02-07T11:16:05.114Z,60.82
2023-02-07T11:18:32.690Z,60.31
2023-02-07T11:21:00.269Z,60.09
2023-02-07T11:23:26.706Z,60.01
2023-02-07T11:25:53.483Z,60.30
2023-02-07T11:28:21.233Z,59.97
2023-02-07T11:30:48.671Z,58.92
2023-02-07T11:33:16.259Z,59.68
2023-02-07T11:35:42.809Z,60.05
2023-02-07T11:38:09.289Z,60.28
2023-02-07T11:40:35.688Z,60.40
2023-02-07T11:43:02.122Z,60.36
2023-02-07T11:45:29.274Z,60.08
2023-02-07T11:47:56.874Z,59.77
2023-02-07T11:50:25.483Z,59.62
2023-02-07T11:52:55.283Z,60.07
2023-02-07T11:55:23.693Z,59.62
2023-02-07T11:57:50.118Z,59.70
2023-02-07T12:00:16.634Z,59.83
2023-02-07T12:02:43.257Z,60.17
2023-02-07T12:05:10.160Z,59.66
2023-02-07T12:07:37.731Z,59.83
2023-02-07T12:10:05.339Z,59.33
2023-02-07T12:12:32.937Z,59.48
2023-02-07T12:15:02.205Z,59.04
2023-02-07T12:17:29.134Z,59.94
2023-02-07T12:19:55.734Z,59.62
2023-02-07T12:22:23.337Z,60.15
2023-02-07T12:24:50.946Z,59.93
2023-02-07T12:27:18.571Z,60.03
2023-02-07T12:29:46.134Z,59.40
2023-02-07T12:32:13.819Z,59.02
2023-02-07T12:34:45.657Z,59.27
2023-02-07T12:37:14.165Z,59.94
2023-02-07T12:39:42.858Z,59.22
2023-02-07T12:42:11.445Z,59.19
2023-02-07T12:44:40.066Z,60.17
2023-02-07T12:47:07.748Z,60.04
2023-02-07T12:49:35.344Z,60.10
2023-02-07T12:52:02.067Z,59.79
2023-02-07T12:54:31.466Z,59.48
2023-02-07T12:56:59.206Z,59.82
2023-02-07T12:59:27.816Z,59.38
2023-02-07T13:01:57.166Z,59.32
2023-02-07T13:04:24.064Z,59.13
2023-02-07T13:06:52.683Z,59.54
2023-02-07T13:09:21.701Z,59.64
2023-02-07T13:11:49.896Z,59.72
2023-02-07T13:14:19.170Z,59.27
2023-02-07T13:16:46.130Z,59.16
2023-02-07T13:19:13.705Z,58.53
2023-02-07T13:21:40.331Z,59.56
2023-02-07T13:24:07.929Z,59.94
2023-02-07T13:26:35.654Z,59.71
2023-02-07T13:29:02.119Z,59.60
2023-02-07T13:31:28.635Z,58.97
2023-02-07T13:33:55.623Z,59.43
2023-02-07T13:36:22.064Z,59.39
2023-02-07T13:38:48.940Z,58.65
2023-02-07T13:41:15.407Z,59.39
2023-02-07T13:43:42.135Z,59.47
2023-02-07T13:46:08.811Z,59.26
2023-02-07T13:48:35.415Z,59.69
2023-02-07T13:51:01.946Z,58.73
2023-02-07T13:53:28.399Z,59.03
2023-02-07T13:55:55.135Z,58.98
2023-02-07T13:58:21.776Z,58.86
2023-02-07T14:00:48.392Z,59.20
2023-02-07T14:03:15.150Z,59.26
2023-02-07T14:05:41.584Z,59.38
2023-02-07T14:08:07.997Z,58.83
2023-02-07T14:10:34.406Z,59.32
2023-02-07T14:13:00.865Z,58.68
2023-02-07T14:15:27.279Z,58.67
2023-02-07T14:17:53.730Z,58.50
2023-02-07T14:20:20.153Z,58.69
2023-02-07T14:22:46.588Z,58.56
2023-02-07T14:25:12.996Z,58.33
2023-02-07T14:27:39.441Z,58.55
2023-02-07T14:30:05.846Z,58.17
2023-02-07T14:32:32.339Z,58.04
2023-02-07T14:34:58.746Z,58.03
2023-02-07T14:37:25.690Z,58.43
2023-02-07T14:39:52.099Z,58.00
2023-02-07T14:42:18.527Z,57.51
2023-02-07T14:44:45.498Z,57.82
2023-02-07T14:47:11.930Z,56.90
2023-02-07T14:49:38.724Z,56.91
2023-02-07T14:52:07.038Z,56.86
2023-02-07T14:54:35.058Z,56.85
2023-02-07T14:57:03.666Z,56.88
2023-02-07T14:59:30.272Z,57.12
2023-02-07T15:01:56.889Z,55.89
2023-02-07T15:04:24.486Z,56.77
2023-02-07T15:06:52.118Z,56.69
2023-02-07T15:09:18.713Z,56.75
2023-02-07T15:11:47.726Z,56.86
2023-02-07T15:14:16.937Z,56.52
2023-02-07T15:16:43.556Z,56.55
2023-02-07T15:19:11.113Z,57.07
2023-02-07T15:21:37.538Z,56.93
2023-02-07T15:24:03.961Z,56.88
2023-02-07T15:26:31.121Z,56.76
2023-02-07T15:28:57.513Z,57.27
2023-02-07T15:31:24.359Z,57.10
2023-02-07T15:33:51.910Z,56.90
2023-02-07T15:36:18.334Z,57.54
2023-02-07T15:38:45.098Z,56.92
2023-02-07T15:41:11.713Z,57.43
2023-02-07T15:43:39.298Z,57.38
2023-02-07T15:46:05.700Z,58.04
2023-02-07T15:48:32.160Z,58.06
2023-02-07T15:50:58.585Z,57.71
2023-02-07T15:53:25.016Z,57.67
2023-02-07T15:55:53.251Z,57.74
2023-02-07T15:58:19.855Z,58.22
2023-02-07T16:00:46.519Z,58.47
2023-02-07T16:03:14.134Z,58.76
2023-02-07T16:05:41.736Z,58.52
2023-02-07T16:08:08.187Z,58.79
2023-02-07T16:10:34.917Z,59.34
2023-02-07T16:13:01.552Z,59.84
2023-02-07T16:15:29.160Z,59.71
2023-02-07T16:17:55.610Z,59.85
2023-02-07T16:20:22.028Z,60.41
2023-02-07T16:22:48.981Z,60.58
2023-02-07T16:25:15.621Z,60.54
2023-02-07T16:27:42.045Z,61.02
2023-02-07T16:30:08.436Z,60.87
2023-02-07T16:32:34.872Z,61.32
2023-02-07T16:35:01.296Z,61.92
2023-02-07T16:37:28.666Z,62.31
2023-02-07T16:39:55.088Z,61.38
2023-02-07T16:42:21.819Z,62.13
2023-02-07T16:44:49.470Z,61.69
2023-02-07T16:47:17.033Z,61.69
2023-02-07T16:49:43.433Z,61.53
2023-02-07T16:52:10.248Z,61.24
2023-02-07T16:54:37.841Z,61.65
2023-02-07T16:57:04.424Z,61.53
2023-02-07T16:59:31.001Z,61.95
2023-02-07T17:01:57.635Z,61.34
2023-02-07T17:04:24.579Z,61.34
2023-02-07T17:06:51.968Z,61.64
2023-02-07T17:09:18.791Z,61.47
2023-02-07T17:11:45.204Z,61.47
2023-02-07T17:14:11.626Z,60.94
2023-02-07T17:16:38.093Z,61.45
2023-02-07T17:19:04.517Z,61.25
2023-02-07T17:21:30.950Z,60.56
2023-02-07T17:23:57.478Z,60.39
2023-02-07T17:26:23.875Z,60.37
2023-02-07T17:28:50.277Z,60.41
2023-02-07T17:31:18.066Z,60.67
2023-02-07T17:33:45.575Z,60.10
2023-02-07T17:36:12.214Z,59.80
2023-02-07T17:38:38.593Z,60.02
2023-02-07T17:41:05.396Z,59.68
2023-02-07T17:43:32.004Z,59.88
2023-02-07T17:46:00.712Z,60.03
2023-02-07T17:48:28.172Z,60.19
2023-02-07T17:50:56.913Z,59.75
2023-02-07T17:53:24.436Z,60.02
2023-02-07T17:55:53.027Z,60.15
2023-02-07T17:58:19.458Z,60.39
2023-02-07T18:00:49.375Z,60.49
2023-02-07T18:03:16.841Z,60.84
2023-02-07T18:05:43.506Z,60.62
2023-02-07T18:08:11.192Z,60.80
2023-02-07T18:10:39.133Z,60.93
2023-02-07T18:13:06.471Z,60.93
2023-02-07T18:15:33.074Z,60.50
2023-02-07T18:17:59.622Z,60.98
2023-02-07T18:20:26.309Z,60.80
2023-02-07T18:22:53.915Z,61.44
2023-02-07T18:25:20.336Z,61.33
2023-02-07T18:27:46.831Z,61.28
2023-02-07T18:30:13.718Z,61.25
2023-02-07T18:32:40.447Z,61.48
2023-02-07T18:35:09.044Z,61.41
2023-02-07T18:37:36.633Z,61.20
2023-02-07T18:40:05.263Z,61.50
2023-02-07T18:42:33.861Z,61.73
2023-02-07T18:45:02.699Z,62.07
2023-02-07T18:47:30.087Z,61.72
2023-02-07T18:49:57.668Z,61.84
2023-02-07T18:52:24.289Z,61.14
2023-02-07T18:54:50.758Z,61.15
2023-02-07T18:57:17.164Z,61.43
2023-02-07T18:59:45.181Z,60.64
2023-02-07T19:02:13.816Z,60.98
2023-02-07T19:04:41.382Z,60.33
2023-02-07T19:07:08.984Z,60.39
2023-02-07T19:09:35.806Z,59.56
2023-02-07T19:12:03.184Z,59.88
2023-02-07T19:14:30.782Z,59.78
2023-02-07T19:16:58.400Z,59.53
2023-02-07T19:19:27.608Z,59.27
2023-02-07T19:21:54.045Z,59.26
2023-02-07T19:24:21.234Z,58.67
2023-02-07T19:26:47.840Z,58.66
2023-02-07T19:29:14.445Z,59.43
2023-02-07T19:31:42.100Z,58.36
2023-02-07T19:34:08.548Z,58.84
2023-02-07T19:36:36.210Z,58.65
2023-02-07T19:39:03.004Z,57.98
2023-02-07T19:41:30.406Z,58.69
2023-02-07T19:43:58.002Z,58.64
2023-02-07T19:46:24.509Z,58.79
2023-02-07T19:48:51.229Z,58.98
2023-02-07T19:51:18.065Z,58.23
2023-02-07T19:53:44.488Z,58.27
2023-02-07T19:56:10.969Z,58.07
2023-02-07T19:58:37.481Z,58.03
2023-02-07T20:01:04.226Z,58.30
2023-02-07T20:03:30.850Z,58.22
2023-02-07T20:05:57.513Z,59.23
2023-02-07T20:08:25.106Z,59.31
2023-02-07T20:10:51.787Z,59.00
2023-02-07T20:13:18.327Z,59.14
2023-02-07T20:15:44.973Z,59.92
2023-02-07T20:18:11.591Z,60.33
2023-02-07T20:20:38.513Z,59.61
2023-02-07T20:23:05.875Z,59.67
2023-02-07T20:25:32.468Z,59.57
2023-02-07T20:27:59.115Z,59.15
2023-02-07T20:30:25.565Z,59.25
2023-02-07T20:32:52.409Z,59.58
2023-02-07T20:35:19.990Z,60.20
2023-02-07T20:37:47.698Z,59.51
2023-02-07T20:40:16.207Z,59.53
2023-02-07T20:42:42.833Z,59.47
2023-02-07T20:45:09.436Z,59.73
2023-02-07T20:47:37.064Z,59.99
2023-02-07T20:50:03.685Z,59.90
2023-02-07T20:52:30.156Z,60.31
2023-02-07T20:54:56.844Z,59.65
2023-02-07T20:57:23.447Z,59.67
2023-02-07T20:59:50.039Z,60.29
2023-02-07T21:02:16.504Z,60.53
2023-02-07T21:04:42.935Z,60.92
2023-02-07T21:07:09.383Z,60.25
2023-02-07T21:09:38.466Z,60.51
2023-02-07T21:12:05.182Z,60.78
2023-02-07T21:14:31.791Z,60.69
2023-02-07T21:16:58.181Z,60.34
2023-02-07T21:19:24.965Z,60.85
2023-02-07T21:21:52.558Z,61.04
2023-02-07T21:24:20.157Z,61.18
2023-02-07T21:26:46.752Z,61.24
2023-02-07T21:29:13.397Z,60.81
2023-02-07T21:31:40.101Z,62.05
2023-02-07T21:34:08.566Z,61.79
2023-02-07T21:36:35.604Z,62.08
2023-02-07T21:39:04.929Z,62.46
2023-02-07T21:44:14.724Z,62.34
2023-02-07T21:46:41.366Z,62.76
2023-02-07T21:49:07.809Z,62.55
2023-02-07T21:51:34.268Z,61.91
2023-02-07T21:54:00.745Z,62.12
2023-02-07T21:56:27.401Z,61.91
2023-02-07T21:58:55.004Z,62.08
2023-02-07T22:01:23.684Z,62.95
2023-02-07T22:03:51.236Z,62.73
2023-02-07T22:06:18.807Z,63.22
2023-02-07T22:08:46.600Z,63.00
2023-02-07T22:11:14.025Z,63.41
2023-02-07T22:13:41.641Z,63.87
2023-02-07T22:16:10.306Z,64.79
2023-02-07T22:18:37.859Z,65.09
2023-02-07T22:21:05.496Z,65.18
2023-02-07T22:23:33.077Z,65.63
2023-02-07T22:25:59.676Z,66.11
2023-02-07T22:28:26.261Z,66.23
2023-02-07T22:30:53.902Z,66.26
2023-02-07T22:33:21.456Z,66.57
2023-02-07T22:35:48.050Z,66.31
2023-02-07T22:38:15.678Z,66.25
2023-02-07T22:40:43.301Z,66.05
2023-02-07T22:43:12.365Z,66.21
2023-02-07T22:45:39.486Z,66.81
2023-02-07T22:48:06.078Z,66.41
2023-02-07T22:50:32.685Z,66.93
2023-02-07T22:52:59.383Z,66.21
2023-02-07T22:55:26.976Z,66.40
2023-02-07T22:57:54.600Z,66.33
2023-02-07T23:00:21.582Z,66.37
2023-02-07T23:02:48.068Z,67.02
2023-02-07T23:05:14.553Z,67.36
2023-02-07T23:07:41.950Z,67.82
2023-02-07T23:10:08.557Z,67.92
2023-02-07T23:12:35.246Z,67.70
2023-02-07T23:15:02.793Z,67.07
2023-02-07T23:17:29.422Z,67.14
2023-02-07T23:19:58.020Z,67.53
2023-02-07T23:22:25.640Z,67.13
2023-02-07T23:24:53.229Z,66.68
2023-02-07T23:27:19.818Z,66.27
2023-02-07T23:29:48.407Z,66.67
2023-02-07T23:32:17.011Z,66.10
2023-02-07T23:34:43.605Z,66.30
2023-02-07T23:37:11.216Z,66.13
2023-02-07T23:39:38.834Z,65.65
2023-02-07T23:42:07.478Z,66.21
2023-02-07T23:44:35.078Z,65.60
2023-02-07T23:47:02.689Z,65.25
2023-02-07T23:49:31.278Z,65.54
2023-02-07T23:51:57.904Z,67.55
2023-02-07T23:54:24.543Z,68.28
2023-02-07T23:56:53.165Z,67.84
2023-02-07T23:59:20.786Z,68.34
